createdAt,value
2022-12-29T00:04:37.258Z,36.48
2022-12-29T00:11:04.588Z,36.58
2022-12-29T00:17:32.254Z,36.61
2022-12-29T00:23:54.362Z,36.59
2022-12-29T00:30:15.548Z,36.33
2022-12-29T00:36:53.962Z,36.2
2022-12-29T00:43:28.146Z,35.87
2022-12-29T00:49:56.644Z,36
2022-12-29T00:56:17.392Z,36.08
2022-12-29T01:02:42.971Z,36.46
2022-12-29T01:09:13.586Z,35.88
2022-12-29T01:15:42.953Z,36
2022-12-29T01:22:14.614Z,36.46
2022-12-29T01:28:44.368Z,36.65
2022-12-29T01:35:06.444Z,36.58
2022-12-29T01:41:30.484Z,36.67
2022-12-29T01:48:21.608Z,36.7
2022-12-29T01:55:17.773Z,36.68
2022-12-29T02:02:07.841Z,36.92
2022-12-29T02:09:00.432Z,36.83
2022-12-29T02:15:35.339Z,36.78
2022-12-29T02:22:41.478Z,37.16
2022-12-29T02:29:51.253Z,37.18
2022-12-29T02:36:55.896Z,37.04
2022-12-29T02:44:02.763Z,36.95
2022-12-29T02:51:16.177Z,36.86
2022-12-29T02:58:14.916Z,36.73
2022-12-29T03:05:05.387Z,36.94
2022-12-29T03:12:14.763Z,36.93
2022-12-29T03:19:30.644Z,36.77
2022-12-29T03:26:27.145Z,36.85
2022-12-29T03:33:14.815Z,36.6
2022-12-29T03:40:10.491Z,36.99
2022-12-29T03:46:48.064Z,36.86
2022-12-29T03:53:20.823Z,36.94
2022-12-29T03:59:45.484Z,37.06
2022-12-29T04:06:14.793Z,37.16
2022-12-29T04:12:40.504Z,37.07
2022-12-29T04:19:08.657Z,37.01
2022-12-29T04:25:44.475Z,36.98
2022-12-29T04:32:11.696Z,37.15
2022-12-29T04:38:33.368Z,37.22
2022-12-29T04:44:54.641Z,36.43
2022-12-29T04:51:15.459Z,35.35
2022-12-29T04:57:42.562Z,34.53
2022-12-29T05:04:06.476Z,34.41
2022-12-29T05:10:33.721Z,34.37
2022-12-29T05:17:08.547Z,34.78
2022-12-29T05:23:34.585Z,35
2022-12-29T05:29:58.479Z,35.27
2022-12-29T05:36:25.843Z,35.27
2022-12-29T05:42:48.917Z,35.43
2022-12-29T05:49:12.084Z,35.64
2022-12-29T05:55:36.629Z,35.76
2022-12-29T06:02:03.825Z,36.09
2022-12-29T06:08:36.109Z,36.12
2022-12-29T06:15:03.459Z,36.2
2022-12-29T06:21:28.542Z,35.22
2022-12-29T06:27:52.588Z,34.59
2022-12-29T06:34:19.502Z,34.12
2022-12-29T06:40:50.611Z,33.84
2022-12-29T06:47:17.518Z,33.92
2022-12-29T06:53:43.042Z,33.55
2022-12-29T07:00:05.700Z,33.63
2022-12-29T07:06:25.569Z,33.51
2022-12-29T07:12:51.466Z,33.74
2022-12-29T07:19:17.806Z,33.73
2022-12-29T07:25:53.889Z,33.79
2022-12-29T07:32:21.759Z,34.44
2022-12-29T07:38:46.553Z,34.51
2022-12-29T07:45:12.300Z,34.39
2022-12-29T07:51:37.600Z,34.35
2022-12-29T07:58:00.491Z,34.29
2022-12-29T08:04:24.707Z,34.61
2022-12-29T08:10:55.157Z,34.84
2022-12-29T08:17:20.594Z,35.42
2022-12-29T08:23:42.014Z,35.43
2022-12-29T08:30:10.713Z,35.84
2022-12-29T08:36:37.032Z,35.79
2022-12-29T08:43:09.640Z,35.78
2022-12-29T08:49:42.726Z,35.75
2022-12-29T08:56:08.087Z,35.9
2022-12-29T09:02:37.199Z,35.8
2022-12-29T09:09:05.828Z,35.75
2022-12-29T09:15:40.098Z,35.91
2022-12-29T09:22:09.737Z,35.87
2022-12-29T09:28:32.608Z,35.73
2022-12-29T09:34:58.543Z,35.96
2022-12-29T09:41:38.516Z,35.79
2022-12-29T09:48:39.123Z,35.9
2022-12-29T09:55:39.153Z,36
2022-12-29T10:02:49.147Z,36.04
2022-12-29T10:09:49.021Z,35.98
2022-12-29T10:16:58.643Z,35.66
2022-12-29T10:24:03.003Z,35.53
2022-12-29T10:30:51.238Z,35.91
2022-12-29T10:37:47.770Z,35.98
2022-12-29T10:44:53.747Z,36.23
2022-12-29T10:51:43.761Z,36.15
2022-12-29T10:58:30.950Z,36.23
2022-12-29T11:05:18.592Z,36.24
2022-12-29T11:12:22.732Z,36.29
2022-12-29T11:19:18.627Z,36.27
2022-12-29T11:26:09.060Z,36.33
2022-12-29T11:33:03.905Z,36.51
2022-12-29T11:39:41.055Z,36.29
2022-12-29T11:46:29.895Z,36.36
2022-12-29T11:53:26.731Z,36.38
2022-12-29T12:00:12.751Z,36.34
2022-12-29T12:07:16.663Z,36.39
2022-12-29T12:14:18.775Z,36.42
2022-12-29T12:21:09.091Z,36.33
2022-12-29T12:28:20.650Z,36.43
2022-12-29T12:35:30.789Z,36.33
2022-12-29T12:42:39.787Z,36.42
2022-12-29T12:49:44.671Z,36.45
2022-12-29T12:56:53.173Z,36.6
2022-12-29T13:04:11.500Z,36.55
2022-12-29T13:11:19.019Z,36.66
2022-12-29T13:18:23.139Z,36.59
2022-12-29T13:25:30.050Z,36.57
2022-12-29T13:32:39.762Z,36.44
2022-12-29T13:39:49.828Z,36.58
2022-12-29T13:46:34.953Z,36.44
2022-12-29T13:53:31.272Z,36.48
2022-12-29T14:00:34.773Z,36.51
2022-12-29T14:07:39.705Z,36.52
2022-12-29T14:14:22.900Z,36.55
2022-12-29T14:21:11.700Z,36.55
2022-12-29T14:28:15.267Z,36.52
2022-12-29T14:35:05.940Z,36.6
2022-12-29T14:42:05.174Z,36.49
2022-12-29T14:48:49.234Z,36.58
2022-12-29T14:55:47.625Z,36.56
2022-12-29T15:02:53.321Z,36.28
2022-12-29T15:09:57.843Z,36.5
2022-12-29T15:16:57.189Z,36.43
2022-12-29T15:23:41.634Z,36.42
2022-12-29T15:30:41.970Z,36.57
2022-12-29T15:37:37.948Z,36.46
2022-12-29T15:44:37.184Z,36.4
2022-12-29T15:51:15.821Z,36.42
2022-12-29T15:58:14.932Z,36.42
2022-12-29T16:05:19.997Z,36.59
2022-12-29T16:11:59.871Z,36.45
2022-12-29T16:19:00.249Z,36.53
2022-12-29T16:26:11.025Z,36.42
2022-12-29T16:33:08.678Z,36.42
2022-12-29T16:39:57.823Z,36.5
2022-12-29T16:46:52.079Z,36.62
2022-12-29T16:53:40.812Z,36.53
2022-12-29T17:00:42.080Z,36.63
2022-12-29T17:07:18.685Z,36.62
2022-12-29T17:14:05.813Z,36.4
2022-12-29T17:20:56.349Z,36.51
2022-12-29T17:27:40.611Z,36.5
2022-12-29T17:34:28.468Z,36.49
2022-12-29T17:41:14.977Z,36.56
2022-12-29T17:47:50.866Z,36.49
2022-12-29T17:54:24.873Z,36.44
2022-12-29T18:01:10.943Z,36.5
2022-12-29T18:07:48.843Z,36.5
2022-12-29T18:14:17.233Z,36.55
2022-12-29T18:20:53.878Z,36.46
2022-12-29T18:27:31.987Z,36.49
2022-12-29T18:34:06.892Z,36.15
2022-12-29T18:40:39.001Z,36.23
2022-12-29T18:47:13.318Z,36.28
2022-12-29T18:53:37.619Z,36.21
2022-12-29T19:00:12.097Z,36.42
2022-12-29T19:06:52.012Z,36.37
2022-12-29T19:13:15.135Z,36.47
2022-12-29T19:19:51.821Z,36.51
2022-12-29T19:26:20.341Z,36.33
2022-12-29T19:32:56.747Z,36.45
2022-12-29T19:39:25.258Z,36.45
2022-12-29T19:45:53.350Z,36.33
2022-12-29T19:52:23.280Z,36.39
2022-12-29T19:58:50.881Z,36.37
2022-12-29T20:05:15.689Z,36.37
2022-12-29T20:11:40.792Z,36.49
2022-12-29T20:18:14.048Z,36.45
2022-12-29T20:25:26.294Z,36.44
2022-12-29T20:31:43.960Z,36.58
2022-12-29T20:38:16.862Z,36.58
2022-12-29T20:44:43.961Z,36.53
2022-12-29T20:51:06.192Z,36.5
2022-12-29T20:58:21.767Z,36.56
2022-12-29T21:04:19.459Z,36.54
2022-12-29T21:10:43.786Z,36.63
2022-12-29T21:17:12.660Z,36.71
2022-12-29T21:23:38.986Z,36.73
2022-12-29T21:30:14.725Z,36.66
2022-12-29T21:36:43.957Z,36.68
2022-12-29T21:43:09.028Z,36.7
2022-12-29T21:49:50.999Z,36.67
2022-12-29T21:56:23.086Z,36.67
2022-12-29T22:02:53.556Z,36.66
2022-12-29T22:09:22.302Z,36.9
2022-12-29T22:15:49.398Z,36.75
2022-12-29T22:22:23.133Z,36.76
2022-12-29T22:28:58.048Z,36.76
2022-12-29T22:35:27.014Z,36.82
2022-12-29T22:41:48.974Z,36.71
2022-12-29T22:48:11.937Z,36.75
2022-12-29T22:54:46.923Z,36.77
2022-12-29T23:01:14.234Z,36.77
2022-12-29T23:07:46.193Z,36.73
2022-12-29T23:14:09.920Z,36.73
2022-12-29T23:20:33.412Z,36.73
2022-12-29T23:27:02.547Z,36.85
2022-12-29T23:33:41.973Z,36.67
2022-12-29T23:40:09.388Z,36.85
2022-12-29T23:46:44.571Z,36.76
2022-12-29T23:53:11.339Z,36.8
2022-12-29T23:59:42.026Z,36.76
